Time;durP1;ratioP1;P1;durP2;ratioP2;P2;SDS_P1;SDS_P2;PMS_P1;PMS_P2;Temp;Humidity;BMP_temperature;BMP_pressure;BME280_temperature;BME280_humidity;BME280_pressure;Samples;Min_cycle;Max_cycle;Signal;HPM_P1;HPM_P2
2022/11/30 00:01:12;;;;;;;42.73;29.53;;;;;;;;;;4959636;28;20224;-86
2022/11/30 00:03:38;;;;;;;41.97;29.70;;;;;;;;;;4962059;28;20216;-85
2022/11/30 00:06:06;;;;;;;50.10;30.07;;;;;;;;;;4989396;28;20213;-87
2022/11/30 00:08:32;;;;;;;46.57;30.00;;;;;;;;;;4979634;28;20235;-85
2022/11/30 00:10:57;;;;;;;41.83;30.57;;;;;;;;;;4976393;28;20225;-86
2022/11/30 00:13:28;;;;;;;42.53;29.27;;;;;;;;;;4958795;28;20237;-84
2022/11/30 00:15:53;;;;;;;42.33;29.63;;;;;;;;;;4960039;28;20775;-84
2022/11/30 00:18:19;;;;;;;40.73;28.00;;;;;;;;;;4956799;28;20229;-85
2022/11/30 00:20:45;;;;;;;45.60;28.27;;;;;;;;;;4960287;28;20229;-85
2022/11/30 00:23:13;;;;;;;40.47;28.80;;;;;;;;;;4990925;28;20327;-83
2022/11/30 00:25:44;;;;;;;42.67;28.63;;;;;;;;;;4960916;28;20241;-85
2022/11/30 00:28:12;;;;;;;46.40;28.50;;;;;;;;;;4944597;28;20262;-85
2022/11/30 00:30:40;;;;;;;42.63;30.83;;;;;;;;;;4975997;28;20701;-84
2022/11/30 00:33:10;;;;;;;41.57;29.63;;;;;;;;;;4962400;28;20236;-84
2022/11/30 00:35:37;;;;;;;45.57;29.53;;;;;;;;;;4995074;28;20221;-84
2022/11/30 00:38:03;;;;;;;44.23;29.07;;;;;;;;;;4992644;28;20629;-84
2022/11/30 00:40:28;;;;;;;42.27;28.23;;;;;;;;;;4963792;28;20229;-85
2022/11/30 00:42:54;;;;;;;39.97;27.83;;;;;;;;;;4963451;28;20252;-82
2022/11/30 00:45:19;;;;;;;44.03;28.73;;;;;;;;;;4978983;28;20217;-85
2022/11/30 00:47:45;;;;;;;38.73;27.60;;;;;;;;;;4969953;28;20228;-84
2022/11/30 00:50:11;;;;;;;39.13;28.30;;;;;;;;;;4997131;28;20235;-84
2022/11/30 00:52:36;;;;;;;37.80;27.20;;;;;;;;;;4979603;28;20239;-85
2022/11/30 00:55:06;;;;;;;38.47;28.53;;;;;;;;;;4997089;28;20239;-85
2022/11/30 00:57:32;;;;;;;40.30;28.20;;;;;;;;;;4983735;28;20233;-85
2022/11/30 01:00:00;;;;;;;49.63;29.97;;;;;;;;;;4972241;28;20289;-85
2022/11/30 01:02:25;;;;;;;39.33;28.63;;;;;;;;;;4970590;28;20225;-84
2022/11/30 01:04:51;;;;;;;39.37;26.43;;;;;;;;;;4969242;28;20231;-86
2022/11/30 01:07:16;;;;;;;34.27;26.07;;;;;;;;;;5001280;28;20239;-85
2022/11/30 01:09:42;;;;;;;34.53;26.07;;;;;;;;;;4970433;28;20228;-85
2022/11/30 01:12:07;;;;;;;32.63;25.03;;;;;;;;;;4986865;28;20220;-85
2022/11/30 01:14:33;;;;;;;36.00;25.70;;;;;;;;;;4990677;28;20229;-84
2022/11/30 01:16:58;;;;;;;36.67;24.80;;;;;;;;;;4967069;28;20228;-86
2022/11/30 01:19:26;;;;;;;33.83;24.43;;;;;;;;;;4963160;28;20229;-87
2022/11/30 01:21:56;;;;;;;30.00;22.70;;;;;;;;;;4954348;28;20225;-84
2022/11/30 01:24:22;;;;;;;27.47;21.97;;;;;;;;;;4948506;28;20218;-84
2022/11/30 01:26:47;;;;;;;28.80;23.83;;;;;;;;;;4966746;28;20224;-84
2022/11/30 01:29:17;;;;;;;32.50;23.33;;;;;;;;;;4984843;28;20216;-85
2022/11/30 01:31:43;;;;;;;29.37;22.83;;;;;;;;;;4966873;28;20227;-86
2022/11/30 01:34:10;;;;;;;25.17;21.03;;;;;;;;;;4958883;28;20588;-85
2022/11/30 01:36:37;;;;;;;26.50;21.03;;;;;;;;;;4975285;28;20220;-87
2022/11/30 01:39:06;;;;;;;26.93;21.60;;;;;;;;;;4966536;28;20228;-84
2022/11/30 01:41:31;;;;;;;29.17;20.60;;;;;;;;;;4974381;28;20266;-87
2022/11/30 01:44:17;;;;;;;24.57;20.30;;;;;;;;;;4990189;28;20234;-85
2022/11/30 01:46:54;;;;;;;24.97;20.97;;;;;;;;;;5002923;28;20829;-85
2022/11/30 01:49:28;;;;;;;26.93;21.43;;;;;;;;;;4984037;28;20236;-86
2022/11/30 01:52:01;;;;;;;24.80;21.33;;;;;;;;;;4979673;28;20213;-86
2022/11/30 01:54:30;;;;;;;25.90;19.93;;;;;;;;;;4986677;28;20748;-86
2022/11/30 01:56:58;;;;;;;24.30;19.27;;;;;;;;;;4983683;28;20228;-85
2022/11/30 01:59:24;;;;;;;24.93;20.77;;;;;;;;;;4966225;28;20221;-85
2022/11/30 02:01:50;;;;;;;23.20;19.67;;;;;;;;;;4967014;28;20232;-85
2022/11/30 02:04:19;;;;;;;26.23;21.60;;;;;;;;;;4965412;28;20216;-85
2022/11/30 02:06:45;;;;;;;25.27;21.37;;;;;;;;;;4982915;28;20601;-84
2022/11/30 02:09:13;;;;;;;26.27;21.03;;;;;;;;;;4963333;28;20225;-85
2022/11/30 02:11:39;;;;;;;28.13;23.07;;;;;;;;;;4964561;28;20710;-84
2022/11/30 02:14:16;;;;;;;30.47;22.07;;;;;;;;;;4990348;28;20228;-84
2022/11/30 02:17:00;;;;;;;30.70;23.73;;;;;;;;;;4959454;28;20377;-85
2022/11/30 02:20:05;;;;;;;29.77;23.47;;;;;;;;;;4998647;28;20248;-85
2022/11/30 02:22:39;;;;;;;31.23;23.33;;;;;;;;;;5016881;28;20843;-85
2022/11/30 02:25:12;;;;;;;34.00;24.30;;;;;;;;;;5013617;28;20212;-85
2022/11/30 02:27:49;;;;;;;30.30;24.07;;;;;;;;;;4986738;28;20225;-84
2022/11/30 02:30:15;;;;;;;31.10;24.40;;;;;;;;;;4998246;28;20237;-86
2022/11/30 02:33:22;;;;;;;33.37;24.97;;;;;;;;;;4968718;28;20213;-86
2022/11/30 02:35:49;;;;;;;39.63;26.17;;;;;;;;;;4981117;28;20225;-84
2022/11/30 02:38:14;;;;;;;33.70;26.00;;;;;;;;;;5000736;28;20235;-85
2022/11/30 02:40:40;;;;;;;35.30;25.73;;;;;;;;;;4984586;28;20240;-86
2022/11/30 02:43:08;;;;;;;36.50;27.53;;;;;;;;;;4998958;28;20292;-86
2022/11/30 02:45:40;;;;;;;37.77;28.00;;;;;;;;;;5007187;28;20204;-86
2022/11/30 02:48:10;;;;;;;45.80;30.53;;;;;;;;;;4962316;28;20236;-86
2022/11/30 02:50:41;;;;;;;43.50;29.57;;;;;;;;;;4980729;28;20298;-88
2022/11/30 02:53:09;;;;;;;41.23;28.30;;;;;;;;;;4989329;28;20225;-86
2022/11/30 02:55:35;;;;;;;40.13;28.43;;;;;;;;;;4980212;28;20225;-85
2022/11/30 02:58:00;;;;;;;43.27;29.57;;;;;;;;;;4985340;28;20286;-86
2022/11/30 03:00:26;;;;;;;46.90;31.50;;;;;;;;;;4987505;28;20271;-85
2022/11/30 03:02:51;;;;;;;44.77;29.50;;;;;;;;;;4950831;28;20244;-86
2022/11/30 03:05:19;;;;;;;49.73;33.07;;;;;;;;;;4965595;28;20626;-86
2022/11/30 03:07:45;;;;;;;44.47;32.37;;;;;;;;;;4993919;28;20230;-86
2022/11/30 03:10:10;;;;;;;44.33;30.70;;;;;;;;;;4981482;28;20225;-85
2022/11/30 03:12:36;;;;;;;46.87;30.33;;;;;;;;;;4964594;28;20729;-86
2022/11/30 03:15:02;;;;;;;50.47;30.97;;;;;;;;;;4966483;28;20585;-87
2022/11/30 03:17:28;;;;;;;50.47;31.37;;;;;;;;;;4966571;28;20225;-85
2022/11/30 03:19:53;;;;;;;46.20;31.07;;;;;;;;;;4965130;28;20221;-86
2022/11/30 03:22:19;;;;;;;49.03;31.10;;;;;;;;;;4964010;28;20229;-85
2022/11/30 03:24:47;;;;;;;42.73;30.03;;;;;;;;;;4965818;28;20225;-86
2022/11/30 03:27:12;;;;;;;42.83;30.30;;;;;;;;;;4963060;28;20289;-86
2022/11/30 03:29:43;;;;;;;46.70;30.63;;;;;;;;;;4991720;28;20717;-86
2022/11/30 03:32:08;;;;;;;56.40;31.70;;;;;;;;;;4965213;28;20225;-86
2022/11/30 03:34:34;;;;;;;45.93;30.17;;;;;;;;;;4964742;28;20229;-86
2022/11/30 03:36:59;;;;;;;46.53;30.37;;;;;;;;;;4957782;28;20234;-85
2022/11/30 03:39:25;;;;;;;46.47;31.13;;;;;;;;;;4965815;28;20224;-85
2022/11/30 03:41:52;;;;;;;52.30;32.10;;;;;;;;;;4976809;28;20228;-87
2022/11/30 03:44:18;;;;;;;48.00;30.33;;;;;;;;;;4987019;28;20274;-85
2022/11/30 03:46:44;;;;;;;44.23;30.37;;;;;;;;;;4981226;28;20244;-85
2022/11/30 03:49:11;;;;;;;46.20;31.40;;;;;;;;;;4979185;28;20339;-85
2022/11/30 03:51:37;;;;;;;51.63;31.47;;;;;;;;;;4951558;28;20247;-85
2022/11/30 03:54:07;;;;;;;44.90;30.80;;;;;;;;;;4980292;28;20224;-86
2022/11/30 03:56:33;;;;;;;51.47;31.07;;;;;;;;;;4962948;28;20221;-85
2022/11/30 03:58:58;;;;;;;46.03;29.37;;;;;;;;;;4962675;28;20240;-85
2022/11/30 04:01:24;;;;;;;50.97;32.10;;;;;;;;;;4957850;28;20255;-86
2022/11/30 04:03:52;;;;;;;46.93;30.97;;;;;;;;;;4979760;28;20213;-85
2022/11/30 04:06:22;;;;;;;56.33;31.97;;;;;;;;;;4963811;28;20228;-85
2022/11/30 04:08:48;;;;;;;45.73;30.73;;;;;;;;;;4957796;28;20260;-84
2022/11/30 04:11:18;;;;;;;55.40;31.63;;;;;;;;;;4963394;28;20224;-85
2022/11/30 04:13:49;;;;;;;47.27;31.30;;;;;;;;;;4965271;28;20212;-84
2022/11/30 04:16:16;;;;;;;49.80;32.47;;;;;;;;;;4965120;28;20239;-85
2022/11/30 04:18:44;;;;;;;44.30;30.43;;;;;;;;;;4963238;28;20237;-86
2022/11/30 04:21:12;;;;;;;46.60;29.90;;;;;;;;;;4977591;28;20569;-86
2022/11/30 04:23:40;;;;;;;47.87;31.03;;;;;;;;;;4976972;28;20231;-85
2022/11/30 04:26:07;;;;;;;49.77;31.60;;;;;;;;;;4941353;28;20282;-85
2022/11/30 04:28:33;;;;;;;49.57;30.30;;;;;;;;;;4980515;28;20229;-85
2022/11/30 04:31:01;;;;;;;42.47;29.80;;;;;;;;;;4965950;28;20228;-86
2022/11/30 04:33:27;;;;;;;45.67;30.47;;;;;;;;;;4973488;28;20697;-85
2022/11/30 04:36:02;;;;;;;46.53;30.67;;;;;;;;;;4988253;28;20688;-85
2022/11/30 04:38:29;;;;;;;46.47;29.23;;;;;;;;;;5001725;28;20311;-86
2022/11/30 04:40:54;;;;;;;48.73;30.90;;;;;;;;;;4984871;28;20263;-85
2022/11/30 04:43:22;;;;;;;45.53;30.43;;;;;;;;;;5001549;28;20286;-85
2022/11/30 04:45:48;;;;;;;45.50;30.20;;;;;;;;;;5000216;28;20217;-86
2022/11/30 04:48:16;;;;;;;54.83;31.93;;;;;;;;;;4974496;28;20220;-78
2022/11/30 04:50:42;;;;;;;46.07;31.60;;;;;;;;;;4962987;28;20236;-82
2022/11/30 04:53:10;;;;;;;52.60;31.70;;;;;;;;;;4983876;28;20225;-80
2022/11/30 04:55:36;;;;;;;49.90;30.83;;;;;;;;;;4984677;28;20228;-79
2022/11/30 04:58:02;;;;;;;54.80;32.80;;;;;;;;;;4999327;28;20248;-82
2022/11/30 05:00:30;;;;;;;53.30;32.80;;;;;;;;;;4968793;28;20303;-82
2022/11/30 05:03:01;;;;;;;54.83;32.13;;;;;;;;;;5014076;28;20228;-81
2022/11/30 05:05:26;;;;;;;54.27;32.90;;;;;;;;;;4976634;28;20231;-81
2022/11/30 05:07:56;;;;;;;54.47;32.33;;;;;;;;;;4967098;28;20232;-82
2022/11/30 05:10:24;;;;;;;57.17;32.73;;;;;;;;;;4984961;28;20268;-79
2022/11/30 05:12:57;;;;;;;55.13;32.10;;;;;;;;;;4967315;28;20233;-79
2022/11/30 05:15:25;;;;;;;55.27;33.83;;;;;;;;;;4981873;28;20742;-80
2022/11/30 05:17:52;;;;;;;48.27;30.83;;;;;;;;;;4995819;28;20240;-81
2022/11/30 05:20:18;;;;;;;50.27;31.97;;;;;;;;;;4961958;28;20256;-79
2022/11/30 05:22:43;;;;;;;48.50;31.30;;;;;;;;;;4960845;28;20709;-79
2022/11/30 05:25:09;;;;;;;52.93;32.23;;;;;;;;;;4967096;28;20224;-78
2022/11/30 05:27:37;;;;;;;48.10;30.40;;;;;;;;;;5002986;28;20221;-81
2022/11/30 05:30:06;;;;;;;50.87;31.60;;;;;;;;;;4972912;28;20222;-81
2022/11/30 05:32:31;;;;;;;48.03;30.13;;;;;;;;;;4973151;28;20604;-80
2022/11/30 05:34:57;;;;;;;53.10;32.60;;;;;;;;;;4972890;28;20233;-81
2022/11/30 05:37:22;;;;;;;50.40;31.43;;;;;;;;;;4977953;28;20244;-78
2022/11/30 05:39:48;;;;;;;58.17;32.83;;;;;;;;;;4991692;28;20290;-80
2022/11/30 05:42:18;;;;;;;49.77;30.33;;;;;;;;;;4998915;28;20225;-77
2022/11/30 05:44:44;;;;;;;51.13;31.73;;;;;;;;;;5008063;28;20244;-79
2022/11/30 05:47:09;;;;;;;54.57;31.10;;;;;;;;;;4977550;28;20224;-80
2022/11/30 05:49:37;;;;;;;48.10;31.97;;;;;;;;;;4972403;28;20220;-81
2022/11/30 05:52:07;;;;;;;48.23;31.83;;;;;;;;;;4970600;28;20225;-80
2022/11/30 05:54:35;;;;;;;51.50;31.53;;;;;;;;;;4989618;28;20440;-80
2022/11/30 05:57:04;;;;;;;56.10;31.73;;;;;;;;;;5002644;28;20732;-80
2022/11/30 05:59:29;;;;;;;53.47;31.27;;;;;;;;;;5004978;28;20702;-80
2022/11/30 06:02:00;;;;;;;53.33;32.23;;;;;;;;;;4986208;28;20243;-81
2022/11/30 06:04:25;;;;;;;51.17;30.87;;;;;;;;;;4989295;28;20275;-79
2022/11/30 06:06:54;;;;;;;52.43;31.00;;;;;;;;;;4997919;28;20240;-80
2022/11/30 06:09:25;;;;;;;49.50;30.97;;;;;;;;;;4995375;28;20221;-79
2022/11/30 06:11:50;;;;;;;46.60;30.23;;;;;;;;;;4979326;28;20277;-78
2022/11/30 06:14:16;;;;;;;49.20;31.47;;;;;;;;;;4996974;28;20213;-80
2022/11/30 06:16:44;;;;;;;49.73;30.90;;;;;;;;;;4963338;28;20233;-80
2022/11/30 06:19:15;;;;;;;55.10;32.80;;;;;;;;;;4982582;28;20244;-80
2022/11/30 06:21:40;;;;;;;51.13;31.50;;;;;;;;;;4981025;28;20212;-79
2022/11/30 06:24:06;;;;;;;58.10;32.60;;;;;;;;;;4949688;28;20227;-79
2022/11/30 06:26:34;;;;;;;54.87;32.93;;;;;;;;;;4966405;28;20224;-79
2022/11/30 06:29:02;;;;;;;51.20;33.20;;;;;;;;;;4991983;28;20236;-79
2022/11/30 06:31:32;;;;;;;51.23;30.93;;;;;;;;;;4966477;28;20221;-81
2022/11/30 06:33:58;;;;;;;52.97;31.80;;;;;;;;;;4971692;28;20224;-80
2022/11/30 06:36:23;;;;;;;55.67;33.37;;;;;;;;;;4988509;28;20228;-79
2022/11/30 06:38:49;;;;;;;51.00;31.97;;;;;;;;;;4982387;28;20242;-80
2022/11/30 06:41:15;;;;;;;47.83;31.70;;;;;;;;;;4974313;28;20208;-80
2022/11/30 06:43:43;;;;;;;57.07;31.60;;;;;;;;;;4969182;28;20227;-78
2022/11/30 06:46:08;;;;;;;45.00;30.80;;;;;;;;;;4967393;28;20220;-79
2022/11/30 06:48:34;;;;;;;46.33;30.20;;;;;;;;;;4967606;28;20251;-80
2022/11/30 06:51:00;;;;;;;49.07;30.07;;;;;;;;;;4987432;28;20699;-81
2022/11/30 06:53:26;;;;;;;49.73;31.07;;;;;;;;;;4988805;28;20212;-80
2022/11/30 06:55:53;;;;;;;53.70;30.03;;;;;;;;;;4970734;28;20237;-78
2022/11/30 06:58:19;;;;;;;52.20;31.43;;;;;;;;;;4970852;28;21346;-79
2022/11/30 07:00:45;;;;;;;46.40;29.13;;;;;;;;;;4985596;28;20228;-80
2022/11/30 07:03:10;;;;;;;52.27;32.30;;;;;;;;;;4967732;28;20224;-80
2022/11/30 07:05:41;;;;;;;44.33;29.23;;;;;;;;;;4987200;28;20344;-78
2022/11/30 07:08:07;;;;;;;49.83;30.17;;;;;;;;;;4974720;28;20228;-79
2022/11/30 07:10:32;;;;;;;45.70;29.13;;;;;;;;;;4971461;28;20307;-79
2022/11/30 07:12:58;;;;;;;55.50;30.07;;;;;;;;;;4984976;28;20225;-78
2022/11/30 07:15:24;;;;;;;47.53;29.63;;;;;;;;;;4968593;28;20220;-79
2022/11/30 07:17:50;;;;;;;43.07;28.53;;;;;;;;;;4985914;28;20226;-79
2022/11/30 07:20:15;;;;;;;48.90;29.30;;;;;;;;;;4981131;28;20596;-81
2022/11/30 07:22:41;;;;;;;45.73;29.27;;;;;;;;;;4964722;28;20248;-79
2022/11/30 07:27:54;;;;;;;47.23;29.37;;;;;;;;;;4980061;23;20321;-76
2022/11/30 07:30:23;;;;;;;46.67;29.77;;;;;;;;;;4958473;28;20635;-74
2022/11/30 07:32:51;;;;;;;45.40;28.07;;;;;;;;;;4956781;28;20226;-75
2022/11/30 07:35:16;;;;;;;50.90;30.10;;;;;;;;;;4922042;28;20755;-75
2022/11/30 07:37:44;;;;;;;42.87;28.23;;;;;;;;;;4966255;28;20787;-73
2022/11/30 07:40:10;;;;;;;47.57;29.13;;;;;;;;;;4918547;28;20348;-76
2022/11/30 07:42:36;;;;;;;45.67;29.00;;;;;;;;;;4932562;28;20333;-77
2022/11/30 07:45:04;;;;;;;37.33;27.17;;;;;;;;;;4948206;28;20705;-76
2022/11/30 07:47:33;;;;;;;46.43;28.97;;;;;;;;;;4929939;28;20233;-76
2022/11/30 07:49:58;;;;;;;42.67;27.27;;;;;;;;;;4931304;28;20261;-74
2022/11/30 07:52:24;;;;;;;44.93;28.00;;;;;;;;;;4928725;28;22630;-76
2022/11/30 07:54:52;;;;;;;40.13;26.47;;;;;;;;;;4940678;28;20241;-73
2022/11/30 07:57:20;;;;;;;37.50;26.67;;;;;;;;;;4908053;28;20229;-74
2022/11/30 07:59:47;;;;;;;41.43;27.53;;;;;;;;;;4915530;28;20716;-73
2022/11/30 08:02:17;;;;;;;41.87;27.53;;;;;;;;;;4930623;28;20237;-76
2022/11/30 08:04:43;;;;;;;43.83;28.13;;;;;;;;;;4932654;28;20696;-75
2022/11/30 08:07:11;;;;;;;39.03;27.13;;;;;;;;;;4920764;28;20221;-76
2022/11/30 08:09:37;;;;;;;37.37;27.00;;;;;;;;;;4904836;28;20301;-75
2022/11/30 08:12:05;;;;;;;38.70;25.73;;;;;;;;;;4910820;28;20309;-75
2022/11/30 08:14:31;;;;;;;41.23;27.17;;;;;;;;;;4942108;28;20301;-75
2022/11/30 08:16:56;;;;;;;34.27;24.77;;;;;;;;;;4925060;28;20723;-76
2022/11/30 08:19:25;;;;;;;42.30;27.03;;;;;;;;;;4920022;28;20318;-76
2022/11/30 08:21:53;;;;;;;38.47;26.80;;;;;;;;;;4908592;28;20263;-76
2022/11/30 08:24:20;;;;;;;40.70;26.77;;;;;;;;;;4921555;28;20226;-77
2022/11/30 08:26:49;;;;;;;43.17;28.07;;;;;;;;;;4921139;28;20228;-76
2022/11/30 08:29:14;;;;;;;42.87;28.30;;;;;;;;;;4928029;28;20254;-76
2022/11/30 08:31:40;;;;;;;37.23;26.07;;;;;;;;;;4933051;28;21374;-76
2022/11/30 08:34:09;;;;;;;40.30;27.20;;;;;;;;;;4946400;28;20720;-77
2022/11/30 08:36:37;;;;;;;36.37;27.17;;;;;;;;;;4949023;28;20596;-77
2022/11/30 08:39:03;;;;;;;38.73;27.50;;;;;;;;;;4915847;28;20336;-76
2022/11/30 08:41:29;;;;;;;39.60;26.20;;;;;;;;;;4932603;28;20232;-77
2022/11/30 08:43:57;;;;;;;34.93;26.70;;;;;;;;;;4932009;28;20214;-77
2022/11/30 08:46:23;;;;;;;37.70;27.17;;;;;;;;;;4932946;28;22796;-77
2022/11/30 08:48:51;;;;;;;36.03;26.73;;;;;;;;;;4953974;28;20713;-77
2022/11/30 08:51:17;;;;;;;40.70;27.17;;;;;;;;;;4954859;28;20244;-76
2022/11/30 08:53:46;;;;;;;40.23;28.07;;;;;;;;;;4951068;28;20259;-76
2022/11/30 08:56:13;;;;;;;39.10;25.73;;;;;;;;;;4936664;28;20257;-77
2022/11/30 08:58:38;;;;;;;39.77;25.33;;;;;;;;;;4940988;28;20253;-77
2022/11/30 09:01:16;;;;;;;40.37;27.33;;;;;;;;;;4956029;28;22064;-76
2022/11/30 09:03:42;;;;;;;43.67;27.97;;;;;;;;;;4956952;28;20226;-77
2022/11/30 09:06:13;;;;;;;38.83;26.90;;;;;;;;;;4958255;28;20700;-77
2022/11/30 09:08:45;;;;;;;38.07;27.43;;;;;;;;;;4957183;28;21958;-77
2022/11/30 09:11:11;;;;;;;38.73;28.10;;;;;;;;;;4939160;28;20587;-76
2022/11/30 09:13:37;;;;;;;36.57;25.10;;;;;;;;;;4956655;28;20254;-75
2022/11/30 09:16:05;;;;;;;41.33;28.90;;;;;;;;;;4959375;28;20235;-76
2022/11/30 09:18:33;;;;;;;38.57;27.13;;;;;;;;;;4942882;28;20222;-76
2022/11/30 09:21:03;;;;;;;36.23;26.60;;;;;;;;;;4940513;28;20305;-76
2022/11/30 09:23:28;;;;;;;40.07;27.47;;;;;;;;;;4933798;28;20708;-77
2022/11/30 09:26:00;;;;;;;37.43;26.53;;;;;;;;;;4947874;28;20237;-76
2022/11/30 09:28:30;;;;;;;38.03;25.97;;;;;;;;;;4945445;28;20226;-76
2022/11/30 09:31:02;;;;;;;38.67;28.13;;;;;;;;;;4953210;28;20218;-76
2022/11/30 09:33:28;;;;;;;41.20;27.70;;;;;;;;;;4950087;28;20225;-76
2022/11/30 09:36:00;;;;;;;38.03;27.23;;;;;;;;;;4931634;28;20230;-76
2022/11/30 09:38:26;;;;;;;38.87;27.90;;;;;;;;;;4929943;28;20288;-76
2022/11/30 09:40:58;;;;;;;38.03;27.07;;;;;;;;;;4930247;28;20218;-77
2022/11/30 09:43:48;;;;;;;36.53;27.30;;;;;;;;;;4911428;28;20222;-75
2022/11/30 09:46:16;;;;;;;40.87;27.80;;;;;;;;;;4909402;28;22525;-74
2022/11/30 09:49:03;;;;;;;39.67;27.07;;;;;;;;;;4914235;28;20256;-78
2022/11/30 09:51:50;;;;;;;39.37;27.47;;;;;;;;;;4945603;28;20226;-76
2022/11/30 09:54:19;;;;;;;32.63;24.90;;;;;;;;;;4946462;28;20731;-76
2022/11/30 09:56:47;;;;;;;37.13;27.03;;;;;;;;;;4940358;28;20253;-77
2022/11/30 09:59:18;;;;;;;36.30;25.20;;;;;;;;;;4926896;28;20232;-77
2022/11/30 10:01:44;;;;;;;37.03;26.03;;;;;;;;;;4940261;28;20280;-75
2022/11/30 10:04:21;;;;;;;35.37;26.87;;;;;;;;;;4949941;28;20242;-78
2022/11/30 10:07:14;;;;;;;35.93;26.13;;;;;;;;;;4922072;28;20280;-76
2022/11/30 10:09:57;;;;;;;37.27;26.43;;;;;;;;;;4956012;28;20264;-76
2022/11/30 10:12:51;;;;;;;36.10;25.43;;;;;;;;;;4931837;28;20225;-76
2022/11/30 10:15:32;;;;;;;35.20;25.10;;;;;;;;;;4951915;28;20230;-76
2022/11/30 10:18:10;;;;;;;35.90;26.20;;;;;;;;;;4929449;28;21152;-76
2022/11/30 10:20:47;;;;;;;34.60;26.33;;;;;;;;;;4933443;28;20225;-75
2022/11/30 10:24:23;;;;;;;38.63;26.70;;;;;;;;;;4949894;28;21513;-78
2022/11/30 10:26:59;;;;;;;33.33;26.63;;;;;;;;;;4882087;28;20226;-75
2022/11/30 10:29:40;;;;;;;35.10;27.00;;;;;;;;;;4966605;28;20230;-76
2022/11/30 10:32:18;;;;;;;41.57;28.03;;;;;;;;;;4955909;28;20236;-77
2022/11/30 10:34:46;;;;;;;36.07;26.67;;;;;;;;;;4936497;28;20244;-73
2022/11/30 10:37:21;;;;;;;36.90;27.33;;;;;;;;;;4951920;28;20233;-76
2022/11/30 10:39:51;;;;;;;35.17;26.13;;;;;;;;;;4958729;28;20261;-76
2022/11/30 10:42:17;;;;;;;36.83;26.13;;;;;;;;;;4962752;28;20225;-77
2022/11/30 10:44:51;;;;;;;41.93;29.33;;;;;;;;;;4975005;28;20226;-80
2022/11/30 10:47:20;;;;;;;39.87;28.90;;;;;;;;;;4952402;28;20222;-76
2022/11/30 10:49:51;;;;;;;46.90;29.67;;;;;;;;;;4954973;28;20233;-75
2022/11/30 10:52:31;;;;;;;44.27;29.03;;;;;;;;;;4954683;28;21630;-76
2022/11/30 10:54:58;;;;;;;39.77;27.93;;;;;;;;;;4922946;28;20741;-77
2022/11/30 10:57:27;;;;;;;40.13;27.77;;;;;;;;;;4939072;28;20268;-76
2022/11/30 10:59:55;;;;;;;41.90;27.67;;;;;;;;;;4955636;28;20313;-76
2022/11/30 11:02:36;;;;;;;41.50;27.97;;;;;;;;;;4938352;28;20237;-74
2022/11/30 11:05:21;;;;;;;42.03;29.20;;;;;;;;;;4947099;28;20226;-77
2022/11/30 11:07:51;;;;;;;43.13;29.63;;;;;;;;;;4933013;28;20461;-76
2022/11/30 11:10:24;;;;;;;42.00;29.73;;;;;;;;;;4962046;28;20233;-77
2022/11/30 11:12:51;;;;;;;44.10;29.23;;;;;;;;;;4926982;28;20676;-76
2022/11/30 11:15:27;;;;;;;44.30;30.37;;;;;;;;;;4929066;28;20234;-76
2022/11/30 11:18:10;;;;;;;40.50;30.07;;;;;;;;;;4916222;28;20345;-77
2022/11/30 11:20:42;;;;;;;42.13;30.03;;;;;;;;;;4948653;28;20222;-75
2022/11/30 11:23:42;;;;;;;47.27;30.47;;;;;;;;;;4948114;28;20226;-76
2022/11/30 11:26:28;;;;;;;45.40;28.60;;;;;;;;;;4923617;28;20237;-76
2022/11/30 11:28:58;;;;;;;40.93;28.93;;;;;;;;;;4929236;28;20265;-77
2022/11/30 11:31:41;;;;;;;38.83;27.93;;;;;;;;;;4964500;28;20222;-75
2022/11/30 11:34:39;;;;;;;43.83;28.20;;;;;;;;;;4953225;28;20237;-77
2022/11/30 11:37:05;;;;;;;40.13;28.23;;;;;;;;;;4899842;28;20699;-76
2022/11/30 11:39:30;;;;;;;45.97;30.17;;;;;;;;;;4966191;28;20731;-78
2022/11/30 11:42:01;;;;;;;44.70;29.60;;;;;;;;;;4954564;28;20222;-76
2022/11/30 11:44:26;;;;;;;40.60;28.87;;;;;;;;;;4952280;28;20280;-75
2022/11/30 11:47:04;;;;;;;47.80;30.70;;;;;;;;;;4948651;28;20226;-76
2022/11/30 11:49:36;;;;;;;40.63;27.70;;;;;;;;;;4932155;28;20319;-76
2022/11/30 11:52:08;;;;;;;44.50;28.93;;;;;;;;;;4947373;28;20234;-77
2022/11/30 11:54:38;;;;;;;39.03;28.37;;;;;;;;;;4950475;28;20237;-76
2022/11/30 11:57:11;;;;;;;40.80;27.93;;;;;;;;;;4948009;28;20317;-76
2022/11/30 11:59:45;;;;;;;42.17;28.63;;;;;;;;;;4932274;28;20229;-76
2022/11/30 12:02:22;;;;;;;42.53;28.67;;;;;;;;;;4930765;28;20299;-76
2022/11/30 12:05:19;;;;;;;38.30;27.03;;;;;;;;;;4949951;28;20225;-77
2022/11/30 12:07:51;;;;;;;40.83;27.73;;;;;;;;;;4913746;28;20945;-76
2022/11/30 12:10:28;;;;;;;42.07;28.23;;;;;;;;;;4953508;28;20226;-75
2022/11/30 12:12:53;;;;;;;39.80;26.60;;;;;;;;;;4968479;28;20229;-76
2022/11/30 12:15:31;;;;;;;39.53;28.43;;;;;;;;;;4933303;28;20249;-77
2022/11/30 12:18:11;;;;;;;37.40;27.17;;;;;;;;;;4949137;28;20284;-75
2022/11/30 12:21:04;;;;;;;37.37;27.00;;;;;;;;;;4934279;28;20884;-75
2022/11/30 12:23:59;;;;;;;44.70;29.60;;;;;;;;;;4951192;28;20230;-76
2022/11/30 12:26:40;;;;;;;38.53;27.10;;;;;;;;;;4952685;28;20233;-77
2022/11/30 12:29:28;;;;;;;39.43;27.77;;;;;;;;;;4943435;28;20232;-76
2022/11/30 12:32:14;;;;;;;36.50;26.70;;;;;;;;;;4958893;28;20226;-78
2022/11/30 12:35:27;;;;;;;42.60;29.73;;;;;;;;;;4961226;28;20234;-77
2022/11/30 12:38:18;;;;;;;38.00;26.60;;;;;;;;;;4936152;28;20317;-76
2022/11/30 12:40:56;;;;;;;40.80;27.83;;;;;;;;;;4959861;28;20317;-78
2022/11/30 12:43:44;;;;;;;37.33;27.47;;;;;;;;;;4975071;28;20299;-76
2022/11/30 12:46:37;;;;;;;37.13;28.20;;;;;;;;;;4965590;28;20293;-77
2022/11/30 12:49:11;;;;;;;42.53;28.77;;;;;;;;;;4966269;28;20320;-77
2022/11/30 12:51:54;;;;;;;42.60;29.83;;;;;;;;;;4983075;28;20750;-77
2022/11/30 12:54:45;;;;;;;40.07;28.70;;;;;;;;;;4966712;28;20225;-78
2022/11/30 12:57:36;;;;;;;42.83;28.77;;;;;;;;;;4936167;28;20237;-77
2022/11/30 13:00:17;;;;;;;45.40;29.53;;;;;;;;;;4953046;28;20865;-76
2022/11/30 13:02:56;;;;;;;43.13;29.63;;;;;;;;;;4947635;28;20670;-78
2022/11/30 13:05:34;;;;;;;44.43;31.73;;;;;;;;;;4959162;28;20258;-76
2022/11/30 13:08:23;;;;;;;43.67;30.60;;;;;;;;;;4959325;28;20320;-77
2022/11/30 13:10:53;;;;;;;47.73;30.50;;;;;;;;;;4922507;28;20222;-76
2022/11/30 13:13:30;;;;;;;47.43;32.17;;;;;;;;;;4930901;28;20237;-71
2022/11/30 13:15:59;;;;;;;46.20;31.67;;;;;;;;;;4916249;28;20945;-76
2022/11/30 13:18:33;;;;;;;44.53;31.47;;;;;;;;;;4936341;28;20229;-76
2022/11/30 13:21:04;;;;;;;43.97;30.57;;;;;;;;;;4952113;28;20230;-76
2022/11/30 13:23:38;;;;;;;48.47;31.97;;;;;;;;;;4966955;28;20249;-76
2022/11/30 13:26:27;;;;;;;43.13;30.07;;;;;;;;;;4954011;28;20222;-78
2022/11/30 13:28:58;;;;;;;46.77;30.07;;;;;;;;;;4968767;28;20233;-77
2022/11/30 13:31:39;;;;;;;43.03;30.30;;;;;;;;;;4938703;28;20393;-78
2022/11/30 13:34:28;;;;;;;46.37;31.60;;;;;;;;;;4958525;28;20234;-77
2022/11/30 13:37:16;;;;;;;51.87;31.40;;;;;;;;;;4942630;28;20249;-77
2022/11/30 13:39:53;;;;;;;52.20;32.97;;;;;;;;;;4956380;28;20234;-78
2022/11/30 13:42:32;;;;;;;56.93;34.53;;;;;;;;;;4940430;28;20225;-77
2022/11/30 13:45:31;;;;;;;48.87;33.03;;;;;;;;;;4957462;28;20229;-76
2022/11/30 13:47:57;;;;;;;48.50;30.80;;;;;;;;;;4955457;28;20250;-78
2022/11/30 13:50:35;;;;;;;52.30;32.60;;;;;;;;;;4940104;28;22497;-77
2022/11/30 13:53:03;;;;;;;48.40;31.77;;;;;;;;;;4939530;28;20221;-77
2022/11/30 13:55:34;;;;;;;42.70;30.20;;;;;;;;;;4957811;28;20245;-76
2022/11/30 13:58:04;;;;;;;39.10;28.70;;;;;;;;;;4959288;28;20254;-77
2022/11/30 14:00:29;;;;;;;42.97;29.47;;;;;;;;;;4956235;28;20222;-77
2022/11/30 14:02:57;;;;;;;44.93;30.03;;;;;;;;;;4956637;28;20892;-77
2022/11/30 14:05:50;;;;;;;43.27;28.77;;;;;;;;;;4923986;28;20232;-77
2022/11/30 14:08:15;;;;;;;49.53;30.33;;;;;;;;;;4939259;28;20786;-78
2022/11/30 14:10:43;;;;;;;46.03;31.30;;;;;;;;;;4960866;28;20229;-77
2022/11/30 14:13:09;;;;;;;46.33;31.00;;;;;;;;;;4947852;28;21221;-78
2022/11/30 14:15:40;;;;;;;43.17;30.23;;;;;;;;;;4962174;28;20258;-77
2022/11/30 14:18:08;;;;;;;47.83;27.73;;;;;;;;;;4955108;28;20230;-77
2022/11/30 14:20:34;;;;;;;41.80;29.77;;;;;;;;;;4955835;28;20648;-77
2022/11/30 14:23:12;;;;;;;37.80;25.83;;;;;;;;;;4972606;28;20218;-78
2022/11/30 14:25:39;;;;;;;37.13;28.07;;;;;;;;;;4938910;28;20232;-77
2022/11/30 14:28:05;;;;;;;43.73;27.83;;;;;;;;;;4924655;28;20705;-78
2022/11/30 14:30:31;;;;;;;39.00;28.07;;;;;;;;;;4941190;28;20316;-78
2022/11/30 14:33:02;;;;;;;42.23;30.13;;;;;;;;;;4958282;28;20222;-77
2022/11/30 14:35:28;;;;;;;41.00;28.13;;;;;;;;;;4942673;28;20242;-78
2022/11/30 14:37:55;;;;;;;43.53;29.07;;;;;;;;;;4957377;28;20249;-77
2022/11/30 14:40:28;;;;;;;46.97;30.27;;;;;;;;;;4940762;28;20292;-77